Time;durP1;ratioP1;P1;durP2;ratioP2;P2;SDS_P1;SDS_P2;PMS_P1;PMS_P2;Temp;Humidity;BMP_temperature;BMP_pressure;BME280_temperature;BME280_humidity;BME280_pressure;Samples;Min_cycle;Max_cycle;Signal;HPM_P1;HPM_P2
2021/03/24 00:01:31;;;;;;;53.27;28.37;;;7.30;98.30;;;;;;5048322;23;20445;-82
2021/03/24 00:03:33;;;;;;;51.87;28.10;;;7.20;98.30;;;;;;5048081;23;20426;-81
2021/03/24 00:05:39;;;;;;;48.10;28.47;;;7.30;98.30;;;;;;5040158;23;20456;-81
2021/03/24 00:07:42;;;;;;;52.50;28.90;;;7.20;98.30;;;;;;5048291;22;20463;-81
2021/03/24 00:09:44;;;;;;;48.20;29.23;;;7.30;98.30;;;;;;5040206;23;20955;-81
2021/03/24 00:11:46;;;;;;;49.73;29.30;;;7.30;98.30;;;;;;5040595;23;20442;-81
2021/03/24 00:13:49;;;;;;;49.23;28.73;;;7.20;98.30;;;;;;5048660;23;20456;-81
2021/03/24 00:15:52;;;;;;;55.20;28.00;;;7.20;98.30;;;;;;5048866;23;20713;-82
2021/03/24 00:17:55;;;;;;;53.87;30.17;;;7.30;98.30;;;;;;5040712;23;20432;-81
2021/03/24 00:19:57;;;;;;;45.43;26.83;;;7.30;98.30;;;;;;5041476;23;20460;-81
2021/03/24 00:21:59;;;;;;;54.93;29.23;;;7.30;98.30;;;;;;5042471;23;20523;-82
2021/03/24 00:24:01;;;;;;;61.17;30.20;;;7.30;98.30;;;;;;5042129;23;20499;-81
2021/03/24 00:26:04;;;;;;;55.13;29.20;;;7.30;98.30;;;;;;5042536;23;20428;-81
2021/03/24 00:28:07;;;;;;;52.90;29.83;;;7.30;98.30;;;;;;5042977;23;20460;-81
2021/03/24 00:30:12;;;;;;;48.00;30.00;;;7.20;98.30;;;;;;5042980;23;21310;-81
2021/03/24 00:32:15;;;;;;;53.70;30.83;;;7.20;98.30;;;;;;5051241;23;20456;-82
2021/03/24 00:34:20;;;;;;;53.83;30.83;;;7.30;98.30;;;;;;5051307;23;20829;-82
2021/03/24 00:36:22;;;;;;;55.37;30.63;;;7.30;98.30;;;;;;5042806;23;20449;-81
2021/03/24 00:38:25;;;;;;;50.10;30.73;;;7.30;98.30;;;;;;5051323;23;20449;-81
2021/03/24 00:40:29;;;;;;;51.70;29.33;;;7.30;98.30;;;;;;5043120;23;20459;-82
2021/03/24 00:42:32;;;;;;;61.07;32.90;;;7.30;98.30;;;;;;5051174;23;20523;-81
2021/03/24 00:44:34;;;;;;;55.83;30.30;;;7.30;98.30;;;;;;5051443;23;20795;-82
2021/03/24 00:46:36;;;;;;;52.33;29.23;;;7.30;98.30;;;;;;5043536;23;20457;-81
2021/03/24 00:48:39;;;;;;;53.47;29.90;;;7.30;98.30;;;;;;5043040;23;20460;-81
2021/03/24 00:50:41;;;;;;;49.03;29.40;;;7.30;98.30;;;;;;5045534;23;21051;-83
2021/03/24 00:52:43;;;;;;;52.47;28.57;;;7.30;98.30;;;;;;5049565;23;20946;-82
2021/03/24 00:54:45;;;;;;;49.57;28.33;;;7.30;98.30;;;;;;5041369;23;20463;-82
2021/03/24 00:56:47;;;;;;;53.47;31.10;;;7.30;98.30;;;;;;5041499;23;20462;-82
2021/03/24 00:58:49;;;;;;;53.20;31.10;;;7.30;98.30;;;;;;5048969;23;20463;-82
2021/03/24 01:00:51;;;;;;;65.30;33.07;;;7.30;98.30;;;;;;5041146;23;20548;-82
2021/03/24 01:02:53;;;;;;;57.30;30.20;;;7.30;98.30;;;;;;5042062;23;20768;-82
2021/03/24 01:04:56;;;;;;;56.43;31.27;;;7.30;98.30;;;;;;5041621;23;20453;-81
2021/03/24 01:06:58;;;;;;;56.43;31.40;;;7.30;98.30;;;;;;5041194;23;20457;-82
2021/03/24 01:09:00;;;;;;;47.40;30.23;;;7.20;98.30;;;;;;5040643;23;21023;-81
2021/03/24 01:11:03;;;;;;;50.43;29.47;;;7.30;98.30;;;;;;5049155;23;20796;-81
2021/03/24 01:13:06;;;;;;;49.93;28.57;;;7.20;98.30;;;;;;5041722;23;20463;-82
2021/03/24 01:15:09;;;;;;;46.17;28.50;;;7.20;98.30;;;;;;5050373;22;20452;-82
2021/03/24 01:17:11;;;;;;;56.40;31.40;;;7.30;98.30;;;;;;5042567;23;20488;-81
2021/03/24 01:19:13;;;;;;;48.53;29.70;;;7.20;98.30;;;;;;5049625;23;20445;-82
2021/03/24 01:21:16;;;;;;;51.03;29.20;;;7.20;98.30;;;;;;5042833;23;20463;-81
2021/03/24 01:23:18;;;;;;;62.00;31.60;;;7.20;98.30;;;;;;5041524;23;20527;-82
2021/03/24 01:25:20;;;;;;;53.33;30.50;;;7.30;98.30;;;;;;5041953;23;20427;-82
2021/03/24 01:27:22;;;;;;;55.23;32.47;;;7.30;98.30;;;;;;5042468;23;20989;-82
2021/03/24 01:29:24;;;;;;;55.40;30.10;;;7.20;98.30;;;;;;5042546;23;20431;-82
2021/03/24 01:31:27;;;;;;;53.77;30.63;;;7.30;98.30;;;;;;5043050;23;20461;-81
2021/03/24 01:33:29;;;;;;;51.93;29.97;;;7.20;98.30;;;;;;5043017;23;20780;-81
2021/03/24 01:35:32;;;;;;;56.70;31.47;;;7.30;98.30;;;;;;5051506;23;21311;-81
2021/03/24 01:37:37;;;;;;;52.00;28.20;;;7.30;98.30;;;;;;5043072;23;20457;-82
2021/03/24 01:39:40;;;;;;;51.60;28.60;;;7.20;98.30;;;;;;5042336;23;20464;-81
2021/03/24 01:41:42;;;;;;;56.57;29.17;;;7.30;98.30;;;;;;5048834;23;20463;-83
2021/03/24 01:43:44;;;;;;;53.07;29.20;;;7.30;98.30;;;;;;5048733;23;20543;-82
2021/03/24 01:46:22;;;;;;;57.53;32.17;;;7.30;98.30;;;;;;5040714;23;20736;-83
2021/03/24 01:48:24;;;;;;;54.33;31.40;;;7.20;98.30;;;;;;5049204;23;20451;-82
2021/03/24 01:50:29;;;;;;;54.20;28.57;;;7.20;98.30;;;;;;5048856;23;20593;-82
2021/03/24 01:52:45;;;;;;;52.30;30.47;;;7.30;98.30;;;;;;5042349;23;20846;-83
2021/03/24 01:54:48;;;;;;;52.20;29.93;;;7.20;98.30;;;;;;5049632;23;20460;-82
2021/03/24 01:56:55;;;;;;;54.60;31.50;;;7.20;98.30;;;;;;5054531;23;20539;-81
2021/03/24 01:58:58;;;;;;;53.57;29.70;;;7.20;98.30;;;;;;5039969;23;20461;-81
2021/03/24 02:01:00;;;;;;;61.33;32.67;;;7.20;98.30;;;;;;5041294;23;20488;-82
2021/03/24 02:03:03;;;;;;;62.07;33.70;;;7.20;98.30;;;;;;5049028;23;20853;-81
2021/03/24 02:05:12;;;;;;;54.53;31.60;;;7.20;98.30;;;;;;5040456;23;20485;-81
2021/03/24 02:07:29;;;;;;;52.97;31.07;;;7.20;98.30;;;;;;5100598;23;20555;-81
2021/03/24 02:12:10;;;;;;;54.47;31.97;;;7.30;98.30;;;;;;5041670;23;20464;-82
2021/03/24 02:14:17;;;;;;;54.90;30.20;;;7.20;98.30;;;;;;5042272;23;20465;-81
2021/03/24 02:16:24;;;;;;;60.57;31.90;;;7.30;98.30;;;;;;5050213;23;21185;-81
2021/03/24 02:18:31;;;;;;;62.73;32.70;;;7.20;98.30;;;;;;5050185;23;20459;-81
2021/03/24 02:20:36;;;;;;;58.50;32.00;;;7.20;98.30;;;;;;5049936;23;20453;-81
2021/03/24 02:22:43;;;;;;;63.57;33.63;;;7.30;98.30;;;;;;5040916;23;20480;-81
2021/03/24 02:24:53;;;;;;;54.80;31.40;;;7.30;98.30;;;;;;5048578;23;20424;-81
2021/03/24 02:27:08;;;;;;;53.20;30.03;;;7.30;98.30;;;;;;5040939;23;20453;-81
2021/03/24 02:29:13;;;;;;;62.27;30.03;;;7.30;98.30;;;;;;5048268;22;20962;-81
2021/03/24 02:31:17;;;;;;;57.37;31.03;;;7.30;98.30;;;;;;5041339;23;20507;-82
2021/03/24 02:33:23;;;;;;;56.27;31.80;;;7.30;98.30;;;;;;5049684;23;20428;-82
2021/03/24 02:35:29;;;;;;;61.33;31.03;;;7.30;98.30;;;;;;5042791;23;20446;-82
2021/03/24 02:37:34;;;;;;;65.40;30.53;;;7.40;98.30;;;;;;5051133;23;20449;-82
2021/03/24 02:39:36;;;;;;;54.77;30.80;;;7.30;98.30;;;;;;5042055;23;20457;-82
2021/03/24 02:44:57;;;;;;;56.63;29.63;;;7.30;98.30;;;;;;5068813;23;20456;-81
2021/03/24 02:47:01;;;;;;;60.40;31.77;;;7.30;98.30;;;;;;5048814;23;20424;-81
2021/03/24 02:49:05;;;;;;;55.80;32.63;;;7.30;98.30;;;;;;5041397;23;20486;-83
2021/03/24 02:51:11;;;;;;;55.00;31.57;;;7.30;98.30;;;;;;5048346;23;20539;-82
2021/03/24 02:53:22;;;;;;;57.77;30.93;;;7.30;98.30;;;;;;5048307;22;20475;-82
2021/03/24 02:55:28;;;;;;;64.47;33.83;;;7.30;98.30;;;;;;5043547;23;20453;-81
2021/03/24 02:57:30;;;;;;;61.23;31.20;;;7.30;98.30;;;;;;5043402;23;20544;-81
2021/03/24 02:59:32;;;;;;;53.93;30.00;;;7.20;98.30;;;;;;5051757;23;20967;-81
2021/03/24 03:01:41;;;;;;;54.97;29.47;;;7.30;98.30;;;;;;5049448;23;20461;-81
2021/03/24 03:03:48;;;;;;;54.60;31.77;;;7.30;98.30;;;;;;5046674;23;20479;-82
2021/03/24 03:05:54;;;;;;;66.60;32.43;;;7.30;98.30;;;;;;5046949;23;20868;-82
2021/03/24 03:08:05;;;;;;;60.37;31.57;;;7.30;98.30;;;;;;5051545;23;20424;-82
2021/03/24 03:10:12;;;;;;;56.70;31.70;;;7.20;98.30;;;;;;5049050;23;20461;-82
2021/03/24 03:12:21;;;;;;;59.60;31.10;;;7.20;98.30;;;;;;5049305;23;20531;-81
2021/03/24 03:14:31;;;;;;;59.87;31.40;;;7.20;98.30;;;;;;5040343;23;20488;-81
2021/03/24 03:16:40;;;;;;;57.77;33.77;;;7.30;98.30;;;;;;5049306;23;20453;-82
2021/03/24 03:18:49;;;;;;;65.03;34.73;;;7.30;98.30;;;;;;5048659;23;20467;-81
2021/03/24 03:20:57;;;;;;;66.97;32.87;;;7.30;98.30;;;;;;5041876;23;20457;-81
2021/03/24 03:23:04;;;;;;;55.47;31.53;;;7.30;98.30;;;;;;5041913;23;20452;-81
2021/03/24 03:25:11;;;;;;;56.37;32.27;;;7.20;98.30;;;;;;5048719;23;20451;-82
2021/03/24 03:27:16;;;;;;;59.63;32.20;;;7.20;98.30;;;;;;5049495;23;20441;-82
2021/03/24 03:29:21;;;;;;;61.30;32.73;;;7.30;98.30;;;;;;5047880;23;20476;-82
2021/03/24 03:31:26;;;;;;;59.83;33.60;;;7.30;98.30;;;;;;5040178;23;20457;-81
2021/03/24 03:33:33;;;;;;;62.03;30.63;;;7.30;98.30;;;;;;5041129;23;20468;-82
2021/03/24 03:35:36;;;;;;;52.10;30.60;;;7.30;98.30;;;;;;5049019;23;20920;-82
2021/03/24 03:37:40;;;;;;;61.10;30.80;;;7.30;98.30;;;;;;5049112;23;20460;-82
2021/03/24 03:39:46;;;;;;;55.87;30.43;;;7.20;98.30;;;;;;5041032;23;20483;-81
2021/03/24 03:44:00;;;;;;;60.13;33.23;;;7.20;98.30;;;;;;5039896;23;20845;-84
2021/03/24 03:46:09;;;;;;;52.57;30.03;;;7.30;98.30;;;;;;5038734;23;20427;-84
2021/03/24 03:48:13;;;;;;;58.03;32.30;;;7.30;98.30;;;;;;5038377;23;20457;-84
2021/03/24 03:50:20;;;;;;;60.70;34.90;;;7.30;98.30;;;;;;5038023;23;20536;-85
2021/03/24 03:52:36;;;;;;;51.40;29.47;;;7.30;98.30;;;;;;5038078;23;20468;-84
2021/03/24 03:54:43;;;;;;;59.40;31.37;;;7.30;98.30;;;;;;5038145;23;20518;-84
2021/03/24 03:56:53;;;;;;;56.60;31.70;;;7.30;98.30;;;;;;5038689;23;20731;-85
2021/03/24 03:59:02;;;;;;;56.30;31.07;;;7.30;98.30;;;;;;5038552;23;20762;-85
2021/03/24 04:01:10;;;;;;;68.30;32.13;;;7.30;98.30;;;;;;5047201;23;20563;-85
2021/03/24 04:03:16;;;;;;;57.07;31.90;;;7.30;98.30;;;;;;5047096;23;20821;-85
2021/03/24 04:05:23;;;;;;;62.97;33.43;;;7.30;98.30;;;;;;5039576;23;20784;-84
2021/03/24 04:07:29;;;;;;;58.57;32.67;;;7.20;98.30;;;;;;5039321;23;20457;-84
2021/03/24 04:09:33;;;;;;;69.63;33.40;;;7.30;98.30;;;;;;5047109;23;20428;-84
2021/03/24 04:11:42;;;;;;;64.20;35.30;;;7.30;98.30;;;;;;5040045;23;20540;-84
2021/03/24 04:13:51;;;;;;;58.43;32.53;;;7.30;98.30;;;;;;5048108;23;20534;-83
2021/03/24 04:15:56;;;;;;;55.97;32.47;;;7.30;98.30;;;;;;5047652;23;20939;-84
2021/03/24 04:18:03;;;;;;;71.43;35.07;;;7.30;98.30;;;;;;5040166;23;20466;-81
2021/03/24 04:20:08;;;;;;;69.30;34.20;;;7.30;98.30;;;;;;5039731;23;20729;-84
2021/03/24 04:22:15;;;;;;;63.50;35.53;;;7.20;98.30;;;;;;5048252;23;20498;-83
2021/03/24 04:24:20;;;;;;;57.40;30.10;;;7.20;98.30;;;;;;5040385;23;20487;-84
2021/03/24 04:26:26;;;;;;;66.10;34.17;;;7.30;98.30;;;;;;5039161;23;20540;-84
2021/03/24 04:28:33;;;;;;;58.67;33.00;;;7.20;98.30;;;;;;5047281;23;20483;-85
2021/03/24 04:30:41;;;;;;;60.73;32.20;;;7.20;98.30;;;;;;5046915;23;20910;-84
2021/03/24 04:32:43;;;;;;;61.20;34.63;;;7.20;98.30;;;;;;5039254;23;20453;-85
2021/03/24 04:34:45;;;;;;;56.47;31.70;;;7.30;98.30;;;;;;5047268;23;20431;-85
2021/03/24 04:36:53;;;;;;;56.20;29.63;;;7.30;98.30;;;;;;5039381;23;21077;-82
2021/03/24 04:39:02;;;;;;;55.63;32.07;;;7.20;98.30;;;;;;5039520;23;20491;-82
2021/03/24 04:41:08;;;;;;;53.40;28.10;;;7.20;98.30;;;;;;5039966;23;20467;-83
2021/03/24 04:43:15;;;;;;;45.83;27.20;;;7.20;98.30;;;;;;5147588;22;20465;-82
2021/03/24 04:45:28;;;;;;;47.80;26.53;;;7.20;98.30;;;;;;5200967;22;20995;-82
2021/03/24 04:47:35;;;;;;;43.70;27.63;;;7.20;98.30;;;;;;5193020;22;20460;-82
2021/03/24 04:49:48;;;;;;;53.00;31.67;;;7.30;98.30;;;;;;5207305;22;20978;-80
2021/03/24 04:51:51;;;;;;;53.43;26.40;;;7.30;98.30;;;;;;5208395;22;20941;-80
2021/03/24 04:53:58;;;;;;;45.67;25.80;;;7.30;98.30;;;;;;5215806;22;20466;-81
2021/03/24 04:56:02;;;;;;;50.37;26.57;;;7.30;98.30;;;;;;5209069;22;20453;-81
2021/03/24 04:58:06;;;;;;;46.67;24.70;;;7.30;98.30;;;;;;5198947;22;20453;-83
2021/03/24 05:00:22;;;;;;;48.40;26.03;;;7.30;98.30;;;;;;5201076;22;20767;-82
2021/03/24 05:02:28;;;;;;;51.87;27.47;;;7.30;98.30;;;;;;5201125;22;20454;-83
2021/03/24 05:04:33;;;;;;;45.93;26.37;;;7.30;98.30;;;;;;5194146;22;20522;-81
2021/03/24 05:06:38;;;;;;;40.87;25.20;;;7.30;98.30;;;;;;5194269;22;20483;-83
2021/03/24 05:08:43;;;;;;;45.10;23.60;;;7.30;98.30;;;;;;5193477;22;20446;-83
2021/03/24 05:10:46;;;;;;;39.40;25.20;;;7.40;98.30;;;;;;5193071;22;20987;-82
2021/03/24 05:12:52;;;;;;;43.30;25.17;;;7.30;98.30;;;;;;5193308;22;20432;-83
2021/03/24 05:14:59;;;;;;;47.57;25.43;;;7.30;98.30;;;;;;5201948;22;20520;-82
2021/03/24 05:17:17;;;;;;;40.07;24.67;;;7.40;98.30;;;;;;5193875;22;20454;-82
2021/03/24 05:19:22;;;;;;;41.20;24.03;;;7.40;98.30;;;;;;5190901;22;20481;-83
2021/03/24 05:21:42;;;;;;;62.83;33.90;;;7.40;98.30;;;;;;5199677;22;20446;-84
2021/03/24 05:23:47;;;;;;;79.87;39.57;;;7.30;98.30;;;;;;5167923;22;20807;-84
2021/03/24 05:25:57;;;;;;;45.93;25.90;;;7.30;98.30;;;;;;5200255;22;20417;-84
2021/03/24 05:28:03;;;;;;;39.97;21.60;;;7.40;98.30;;;;;;5191337;22;20454;-84
2021/03/24 05:30:11;;;;;;;35.47;20.83;;;7.40;98.30;;;;;;5199561;22;20504;-84
2021/03/24 05:32:18;;;;;;;39.20;23.07;;;7.40;98.30;;;;;;5199774;22;20442;-83
2021/03/24 05:34:25;;;;;;;48.57;28.00;;;7.40;98.30;;;;;;5200956;22;20533;-84
2021/03/24 05:36:33;;;;;;;37.43;22.73;;;7.50;98.30;;;;;;5201683;22;20498;-83
2021/03/24 05:38:38;;;;;;;37.40;22.83;;;7.40;98.30;;;;;;5201012;22;20446;-82
2021/03/24 05:40:57;;;;;;;39.67;23.33;;;7.50;98.30;;;;;;5191986;22;20454;-84
2021/03/24 05:43:18;;;;;;;46.13;26.43;;;7.40;98.30;;;;;;5201719;22;20425;-84
2021/03/24 05:45:33;;;;;;;46.63;25.57;;;7.40;98.30;;;;;;5192316;22;20529;-84
2021/03/24 05:47:58;;;;;;;51.33;28.07;;;7.40;98.30;;;;;;5199726;22;20520;-85
2021/03/24 05:50:25;;;;;;;55.40;28.80;;;7.30;98.30;;;;;;5191139;22;20818;-84
2021/03/24 05:52:40;;;;;;;54.60;30.00;;;7.30;98.30;;;;;;5140389;22;21175;-84
2021/03/24 05:55:08;;;;;;;54.90;30.97;;;7.30;98.30;;;;;;5190932;22;20490;-84
2021/03/24 05:57:23;;;;;;;56.10;30.03;;;7.20;98.30;;;;;;5193329;22;20433;-82
2021/03/24 05:59:38;;;;;;;53.20;30.23;;;7.30;98.30;;;;;;5208982;22;20470;-82
2021/03/24 06:01:45;;;;;;;56.17;30.40;;;7.20;98.30;;;;;;5218472;22;20504;-82
2021/03/24 06:04:03;;;;;;;58.47;32.60;;;7.20;98.30;;;;;;5218891;22;20478;-82
2021/03/24 06:06:36;;;;;;;61.20;29.83;;;7.20;98.30;;;;;;5219019;22;20443;-82
2021/03/24 06:09:14;;;;;;;62.47;33.53;;;7.30;98.30;;;;;;5202229;22;20477;-83
2021/03/24 06:11:35;;;;;;;61.50;33.37;;;7.20;98.30;;;;;;5207047;22;20487;-83
2021/03/24 06:14:16;;;;;;;65.90;32.87;;;7.30;98.30;;;;;;5198031;22;20541;-84
2021/03/24 06:16:54;;;;;;;61.97;32.23;;;7.30;98.30;;;;;;5195509;22;20486;-84
2021/03/24 06:19:07;;;;;;;65.43;33.73;;;7.20;98.30;;;;;;5176128;22;20477;-83
2021/03/24 06:21:19;;;;;;;63.17;34.33;;;7.30;98.30;;;;;;5206120;22;20439;-84
2021/03/24 06:23:56;;;;;;;68.07;35.27;;;7.30;98.30;;;;;;5204788;22;20474;-85
2021/03/24 06:26:31;;;;;;;61.33;33.80;;;7.30;98.30;;;;;;5196562;22;20443;-82
2021/03/24 06:28:40;;;;;;;67.07;35.40;;;7.30;98.30;;;;;;5196133;22;20506;-82
2021/03/24 06:30:51;;;;;;;67.57;35.43;;;7.30;98.30;;;;;;5195355;22;21227;-82
2021/03/24 06:33:47;;;;;;;72.57;38.00;;;7.20;98.30;;;;;;5204280;22;20446;-84
2021/03/24 06:36:47;;;;;;;70.50;37.03;;;7.20;98.30;;;;;;5194635;22;20501;-84
2021/03/24 06:39:04;;;;;;;64.40;34.33;;;7.10;98.30;;;;;;5193804;22;20464;-82
2021/03/24 06:41:39;;;;;;;66.43;35.00;;;7.30;98.30;;;;;;5203081;22;20516;-84
2021/03/24 06:43:55;;;;;;;59.87;33.00;;;7.30;98.30;;;;;;5202847;22;20458;-84
2021/03/24 06:46:08;;;;;;;71.90;35.67;;;7.40;98.30;;;;;;5195103;22;20436;-84
2021/03/24 06:48:29;;;;;;;67.07;37.23;;;7.30;98.30;;;;;;5202760;22;20447;-84
2021/03/24 06:51:15;;;;;;;68.17;37.03;;;7.40;98.30;;;;;;5192981;22;20454;-84
2021/03/24 06:53:46;;;;;;;62.63;34.53;;;7.40;98.30;;;;;;5194261;22;20877;-83
2021/03/24 06:56:32;;;;;;;62.50;31.17;;;7.50;98.30;;;;;;5201917;22;20413;-83
2021/03/24 06:59:15;;;;;;;65.83;33.90;;;7.60;98.30;;;;;;5193563;22;20481;-84
2021/03/24 07:01:47;;;;;;;58.30;31.03;;;7.60;98.30;;;;;;5202601;22;20521;-85
2021/03/24 07:04:24;;;;;;;67.43;34.23;;;7.70;98.30;;;;;;5202879;22;20409;-83
2021/03/24 07:06:43;;;;;;;56.30;30.20;;;7.60;98.30;;;;;;5192943;22;20453;-83
2021/03/24 07:09:02;;;;;;;56.60;32.33;;;7.60;98.30;;;;;;5202285;22;20443;-83
2021/03/24 07:11:23;;;;;;;63.17;32.90;;;7.70;98.30;;;;;;5203073;22;20474;-82
2021/03/24 07:14:08;;;;;;;59.40;30.93;;;7.70;98.30;;;;;;5193961;22;20499;-83
2021/03/24 07:16:33;;;;;;;55.60;32.50;;;7.70;98.30;;;;;;5201942;22;20497;-84
2021/03/24 07:18:51;;;;;;;53.97;31.30;;;7.70;98.30;;;;;;5204332;22;20425;-84
2021/03/24 07:21:23;;;;;;;57.77;31.90;;;7.70;98.30;;;;;;5204006;22;20465;-84
2021/03/24 07:23:55;;;;;;;65.43;34.67;;;7.80;98.30;;;;;;5165923;22;20421;-84
2021/03/24 07:26:05;;;;;;;57.57;32.03;;;7.70;98.30;;;;;;5191286;22;20794;-83
2021/03/24 07:28:41;;;;;;;61.87;31.70;;;7.70;98.30;;;;;;5201497;22;20752;-83
2021/03/24 07:31:14;;;;;;;58.93;32.77;;;7.80;98.30;;;;;;5186607;22;20475;-83
2021/03/24 07:33:25;;;;;;;55.50;31.43;;;7.80;98.30;;;;;;5201122;22;20470;-82
2021/03/24 07:35:39;;;;;;;55.70;32.10;;;7.80;98.30;;;;;;5192876;22;20458;-84
2021/03/24 07:38:08;;;;;;;62.20;35.03;;;7.80;98.30;;;;;;5199517;22;21232;-84
2021/03/24 07:40:39;;;;;;;62.83;31.97;;;7.80;98.30;;;;;;5200994;22;20417;-83
2021/03/24 07:43:06;;;;;;;65.53;33.17;;;7.90;98.30;;;;;;5201162;22;20429;-83
2021/03/24 07:45:33;;;;;;;64.70;32.37;;;7.90;98.30;;;;;;5201123;22;20974;-84
2021/03/24 07:47:54;;;;;;;62.43;33.70;;;7.90;98.30;;;;;;5194340;22;20452;-85
2021/03/24 07:50:18;;;;;;;65.90;35.07;;;7.90;98.30;;;;;;5188766;22;20473;-85
2021/03/24 07:52:38;;;;;;;53.20;30.77;;;7.90;98.30;;;;;;5200067;22;20465;-84
2021/03/24 07:54:47;;;;;;;64.93;33.33;;;7.90;98.30;;;;;;5198149;22;20459;-82
2021/03/24 07:56:56;;;;;;;59.50;31.40;;;8.00;98.30;;;;;;5212805;22;20450;-81
2021/03/24 07:59:21;;;;;;;57.60;32.43;;;8.10;98.30;;;;;;5214765;22;20416;-82
2021/03/24 08:01:32;;;;;;;62.33;32.97;;;8.10;98.30;;;;;;5205928;22;20535;-82
2021/03/24 08:03:46;;;;;;;53.90;30.80;;;8.10;98.30;;;;;;5192206;22;20425;-84
2021/03/24 08:06:14;;;;;;;57.10;33.47;;;8.10;98.30;;;;;;5195028;22;20484;-82
2021/03/24 08:08:22;;;;;;;56.97;35.23;;;8.20;98.30;;;;;;5202848;22;20786;-84
2021/03/24 08:10:45;;;;;;;52.43;31.57;;;8.20;98.30;;;;;;5202179;22;20929;-83
2021/03/24 08:13:32;;;;;;;53.47;30.07;;;8.20;98.30;;;;;;5192943;22;20429;-86
2021/03/24 08:16:55;;;;;;;56.97;30.10;;;8.20;98.30;;;;;;5187764;22;20423;-85
2021/03/24 08:23:38;;;;;;;;;;;;;;;;;;;;;
2021/03/24 08:26:22;;;;;;;63.93;32.70;;;8.50;98.30;;;;;;5093309;22;20430;-84
2021/03/24 09:01:34;;;;;;;57.80;35.80;;;10.80;98.30;;;;;;5052684;22;20463;-82
2021/03/24 09:04:15;;;;;;;59.47;32.93;;;10.80;98.30;;;;;;5059505;23;20543;-83
2021/03/24 09:06:30;;;;;;;54.90;33.87;;;10.80;98.30;;;;;;5063507;23;20546;-84
2021/03/24 09:08:35;;;;;;;59.17;36.73;;;10.80;98.30;;;;;;5067121;23;20463;-82
2021/03/24 09:10:49;;;;;;;57.20;34.40;;;11.00;98.30;;;;;;5073864;23;20522;-82
2021/03/24 09:13:00;;;;;;;61.00;36.53;;;11.10;98.30;;;;;;5074064;23;20555;-83
2021/03/24 09:15:06;;;;;;;58.83;36.93;;;11.20;98.30;;;;;;5073602;23;21081;-82
2021/03/24 09:17:52;;;;;;;52.90;33.87;;;11.10;98.30;;;;;;5074676;23;20543;-84
2021/03/24 09:20:33;;;;;;;52.83;32.33;;;11.00;98.30;;;;;;4974838;23;20567;-81
2021/03/24 09:23:04;;;;;;;60.90;33.20;;;11.00;98.30;;;;;;5069263;23;20478;-83
2021/03/24 09:25:25;;;;;;;65.73;37.37;;;10.80;98.30;;;;;;5075328;23;20759;-82
2021/03/24 09:27:54;;;;;;;57.73;33.53;;;10.90;98.30;;;;;;5076074;23;20939;-85
2021/03/24 09:30:18;;;;;;;54.90;32.30;;;11.10;98.30;;;;;;5074234;23;20448;-82
2021/03/24 09:32:26;;;;;;;63.23;31.97;;;11.20;98.30;;;;;;5074576;23;20452;-82
2021/03/24 09:34:48;;;;;;;59.33;32.50;;;11.30;98.30;;;;;;5073518;23;20459;-82
2021/03/24 09:37:03;;;;;;;58.83;35.50;;;11.30;98.30;;;;;;5074079;23;20509;-82
2021/03/24 09:39:16;;;;;;;57.03;35.97;;;11.40;98.30;;;;;;5074086;23;20853;-82
2021/03/24 09:41:29;;;;;;;58.97;34.97;;;11.40;98.30;;;;;;5073941;23;20461;-81
2021/03/24 09:43:37;;;;;;;57.37;33.03;;;11.60;98.30;;;;;;5081100;22;21262;-83
2021/03/24 09:45:39;;;;;;;54.20;32.80;;;11.80;98.30;;;;;;5226966;22;20677;-82
2021/03/24 09:47:48;;;;;;;52.40;32.63;;;12.00;98.30;;;;;;5226130;22;20472;-84
2021/03/24 09:49:58;;;;;;;48.97;32.67;;;12.20;98.30;;;;;;5223246;22;20445;-84
2021/03/24 09:52:25;;;;;;;53.83;35.13;;;12.20;98.30;;;;;;5232191;22;20929;-84
2021/03/24 09:54:29;;;;;;;56.80;36.40;;;12.30;98.30;;;;;;5218512;22;20500;-82
2021/03/24 09:56:32;;;;;;;46.63;34.87;;;12.20;98.30;;;;;;5224068;22;20446;-83
2021/03/24 09:59:11;;;;;;;51.80;30.60;;;12.50;98.30;;;;;;5222595;22;20454;-82
2021/03/24 10:01:27;;;;;;;53.67;35.17;;;12.70;98.30;;;;;;5219537;22;20453;-83
2021/03/24 10:03:38;;;;;;;57.20;37.27;;;12.70;98.30;;;;;;5230913;22;20469;-84
2021/03/24 10:05:47;;;;;;;44.90;30.03;;;12.60;98.30;;;;;;5223482;22;20448;-85
2021/03/24 10:08:00;;;;;;;48.90;31.13;;;12.50;98.30;;;;;;5230147;22;20806;-87
2021/03/24 10:10:08;;;;;;;44.77;31.20;;;12.20;98.30;;;;;;5221325;22;20449;-85
2021/03/24 10:12:22;;;;;;;51.83;31.97;;;12.20;98.30;;;;;;5229485;22;20915;-86
2021/03/24 10:14:34;;;;;;;48.30;30.97;;;12.20;98.30;;;;;;5231183;22;20772;-85
2021/03/24 10:16:41;;;;;;;49.73;32.47;;;12.20;98.30;;;;;;5223331;22;20445;-85
2021/03/24 10:18:53;;;;;;;52.73;33.17;;;12.30;98.30;;;;;;5230015;22;20446;-82
2021/03/24 10:21:03;;;;;;;56.37;36.20;;;12.20;98.30;;;;;;5231373;22;20469;-83
2021/03/24 10:23:15;;;;;;;51.53;34.10;;;11.80;98.30;;;;;;5225180;22;20484;-83
2021/03/24 10:25:24;;;;;;;58.07;35.30;;;11.80;98.30;;;;;;5227761;22;20438;-84
2021/03/24 10:27:53;;;;;;;57.00;37.97;;;11.80;98.30;;;;;;5228667;22;20449;-84
2021/03/24 10:30:07;;;;;;;56.67;37.67;;;11.80;98.30;;;;;;5228439;22;20441;-84
2021/03/24 10:32:25;;;;;;;56.80;37.93;;;11.80;98.30;;;;;;5226821;22;20763;-83
2021/03/24 10:34:36;;;;;;;54.80;35.30;;;11.80;98.30;;;;;;5226324;22;21019;-84
2021/03/24 10:36:47;;;;;;;59.00;36.77;;;11.60;98.30;;;;;;5217682;22;20454;-84
2021/03/24 10:38:54;;;;;;;54.20;34.40;;;11.80;98.30;;;;;;5226251;22;20448;-84
2021/03/24 10:41:18;;;;;;;56.23;35.63;;;11.80;98.30;;;;;;5218511;22;20986;-84
2021/03/24 10:43:28;;;;;;;51.83;33.80;;;11.80;98.30;;;;;;5217474;22;21008;-83
2021/03/24 10:46:03;;;;;;;53.13;33.13;;;12.00;98.30;;;;;;5200662;22;20443;-83
2021/03/24 10:48:11;;;;;;;51.60;33.77;;;11.90;98.30;;;;;;5191110;22;21019;-83
2021/03/24 10:50:22;;;;;;;50.30;35.63;;;12.00;98.30;;;;;;5189851;22;20457;-82
2021/03/24 10:52:30;;;;;;;50.00;35.03;;;12.00;98.30;;;;;;5192159;22;20501;-81
2021/03/24 10:54:35;;;;;;;47.43;31.20;;;12.00;98.30;;;;;;5201290;22;20750;-81
2021/03/24 10:56:56;;;;;;;55.80;35.07;;;11.90;98.30;;;;;;5194091;22;20485;-81
2021/03/24 10:59:04;;;;;;;51.27;34.83;;;11.70;98.30;;;;;;5203679;22;20447;-82
2021/03/24 11:01:11;;;;;;;53.37;34.27;;;11.70;98.30;;;;;;5195712;22;20949;-83
2021/03/24 11:03:19;;;;;;;54.13;30.70;;;11.90;98.30;;;;;;5193139;22;20525;-85
2021/03/24 11:05:28;;;;;;;43.90;31.10;;;12.00;98.30;;;;;;5193236;22;20450;-84
2021/03/24 11:07:36;;;;;;;46.47;30.00;;;12.00;98.30;;;;;;5201127;22;20746;-83
2021/03/24 11:09:46;;;;;;;47.93;30.80;;;12.10;98.30;;;;;;5193107;22;20454;-83
2021/03/24 11:11:52;;;;;;;43.40;26.93;;;12.20;98.30;;;;;;5200730;22;20449;-83
2021/03/24 11:13:58;;;;;;;37.40;26.10;;;12.40;97.40;;;;;;5199535;22;20453;-83
2021/03/24 11:16:16;;;;;;;43.70;28.40;;;12.30;97.70;;;;;;5200630;22;20456;-83
2021/03/24 11:18:24;;;;;;;43.90;29.23;;;12.20;98.30;;;;;;5202378;22;20499;-83
2021/03/24 11:20:43;;;;;;;43.30;30.03;;;12.20;98.30;;;;;;5200909;22;20465;-83
2021/03/24 11:22:53;;;;;;;44.80;29.30;;;12.20;98.30;;;;;;5201406;22;20438;-83
2021/03/24 11:25:00;;;;;;;52.53;32.63;;;12.30;97.60;;;;;;5193357;22;20502;-83
2021/03/24 11:27:22;;;;;;;52.23;33.90;;;12.20;98.30;;;;;;5193200;22;20470;-83
2021/03/24 11:29:25;;;;;;;48.67;34.40;;;12.80;98.10;;;;;;5199656;22;20533;-83
2021/03/24 11:31:41;;;;;;;50.03;34.60;;;13.50;95.30;;;;;;5193555;22;20446;-83
2021/03/24 11:33:48;;;;;;;47.60;32.70;;;14.10;93.80;;;;;;5201434;22;20438;-83
2021/03/24 11:35:59;;;;;;;52.40;34.80;;;14.20;91.60;;;;;;5194060;22;20454;-83
2021/03/24 11:38:08;;;;;;;47.17;32.00;;;14.10;92.10;;;;;;5194120;22;20446;-83
2021/03/24 11:40:33;;;;;;;52.77;33.60;;;14.10;91.40;;;;;;5201980;22;20452;-83
2021/03/24 11:42:36;;;;;;;48.10;34.33;;;14.10;90.80;;;;;;5202888;22;20449;-83
2021/03/24 11:44:39;;;;;;;51.30;34.70;;;14.00;91.00;;;;;;5193975;22;20944;-83
2021/03/24 11:46:59;;;;;;;49.43;34.50;;;14.00;91.30;;;;;;5193812;22;20450;-84
2021/03/24 11:49:29;;;;;;;50.27;37.20;;;14.70;90.40;;;;;;5191737;22;20508;-83
2021/03/24 11:51:41;;;;;;;46.10;32.70;;;14.90;89.80;;;;;;5200668;22;20451;-82
2021/03/24 11:54:05;;;;;;;38.77;30.70;;;15.40;89.70;;;;;;5192227;22;20953;-81
2021/03/24 11:56:18;;;;;;;43.20;32.60;;;15.80;86.80;;;;;;5191932;22;20454;-81
2021/03/24 11:58:36;;;;;;;49.67;35.23;;;15.90;86.60;;;;;;5201029;22;20449;-82
2021/03/24 12:00:50;;;;;;;45.43;34.03;;;15.90;86.70;;;;;;5192296;22;20461;-82
2021/03/24 12:03:02;;;;;;;48.70;36.07;;;15.40;87.00;;;;;;5191684;22;20454;-81
2021/03/24 12:05:18;;;;;;;46.27;34.73;;;14.60;89.10;;;;;;5200912;22;20488;-82